sensor_id;sensor_type;location;lat;lon;timestamp;P1;durP1;ratioP1;P2;durP2;ratioP2
47860;SDS011;33620;52.340;5.984;2022-11-20T00:01:32;39.90;;;16.63;;
47860;SDS011;33620;52.340;5.984;2022-11-20T00:03:58;34.25;;;17.48;;
47860;SDS011;33620;52.340;5.984;2022-11-20T00:06:24;32.65;;;15.48;;
47860;SDS011;33620;52.340;5.984;2022-11-20T00:08:50;32.35;;;17.48;;
47860;SDS011;33620;52.340;5.984;2022-11-20T00:11:19;36.20;;;20.88;;
47860;SDS011;33620;52.340;5.984;2022-11-20T00:13:46;44.08;;;24.00;;
47860;SDS011;33620;52.340;5.984;2022-11-20T00:16:13;43.55;;;24.05;;
47860;SDS011;33620;52.340;5.984;2022-11-20T00:18:40;47.22;;;25.42;;
47860;SDS011;33620;52.340;5.984;2022-11-20T00:21:09;41.17;;;22.92;;
47860;SDS011;33620;52.340;5.984;2022-11-20T00:23:36;40.42;;;21.45;;
47860;SDS011;33620;52.340;5.984;2022-11-20T00:26:05;37.58;;;21.38;;
47860;SDS011;33620;52.340;5.984;2022-11-20T00:28:32;36.05;;;19.73;;
47860;SDS011;33620;52.340;5.984;2022-11-20T00:31:01;38.42;;;21.33;;
47860;SDS011;33620;52.340;5.984;2022-11-20T00:33:31;41.72;;;22.88;;
47860;SDS011;33620;52.340;5.984;2022-11-20T00:36:00;38.72;;;21.42;;
47860;SDS011;33620;52.340;5.984;2022-11-20T00:38:30;38.92;;;20.70;;
47860;SDS011;33620;52.340;5.984;2022-11-20T00:40:57;35.97;;;19.48;;
47860;SDS011;33620;52.340;5.984;2022-11-20T00:43:23;33.20;;;18.58;;
47860;SDS011;33620;52.340;5.984;2022-11-20T00:45:49;35.10;;;19.15;;
47860;SDS011;33620;52.340;5.984;2022-11-20T00:48:15;39.38;;;19.63;;
47860;SDS011;33620;52.340;5.984;2022-11-20T00:50:41;38.08;;;19.83;;
47860;SDS011;33620;52.340;5.984;2022-11-20T00:53:06;39.65;;;20.67;;
47860;SDS011;33620;52.340;5.984;2022-11-20T00:55:32;41.97;;;21.70;;
47860;SDS011;33620;52.340;5.984;2022-11-20T00:57:57;39.10;;;20.58;;
47860;SDS011;33620;52.340;5.984;2022-11-20T01:00:22;38.85;;;20.27;;
47860;SDS011;33620;52.340;5.984;2022-11-20T01:02:48;41.15;;;20.23;;
47860;SDS011;33620;52.340;5.984;2022-11-20T01:05:13;39.70;;;20.85;;
47860;SDS011;33620;52.340;5.984;2022-11-20T01:07:38;40.88;;;19.58;;
47860;SDS011;33620;52.340;5.984;2022-11-20T01:10:04;36.50;;;19.63;;
47860;SDS011;33620;52.340;5.984;2022-11-20T01:12:29;38.33;;;19.83;;
47860;SDS011;33620;52.340;5.984;2022-11-20T01:14:55;40.08;;;19.55;;
47860;SDS011;33620;52.340;5.984;2022-11-20T01:17:20;32.78;;;16.63;;
47860;SDS011;33620;52.340;5.984;2022-11-20T01:19:48;33.28;;;15.85;;
47860;SDS011;33620;52.340;5.984;2022-11-20T01:22:15;32.08;;;16.63;;
47860;SDS011;33620;52.340;5.984;2022-11-20T01:24:40;32.55;;;16.85;;
47860;SDS011;33620;52.340;5.984;2022-11-20T01:27:05;31.17;;;15.65;;
47860;SDS011;33620;52.340;5.984;2022-11-20T01:29:31;29.38;;;14.98;;
47860;SDS011;33620;52.340;5.984;2022-11-20T01:31:56;27.95;;;13.70;;
47860;SDS011;33620;52.340;5.984;2022-11-20T01:34:22;28.48;;;13.93;;
47860;SDS011;33620;52.340;5.984;2022-11-20T01:36:48;26.35;;;13.45;;
47860;SDS011;33620;52.340;5.984;2022-11-20T01:39:17;29.25;;;14.15;;
47860;SDS011;33620;52.340;5.984;2022-11-20T01:41:45;27.60;;;12.50;;
47860;SDS011;33620;52.340;5.984;2022-11-20T01:44:42;28.40;;;14.07;;
47860;SDS011;33620;52.340;5.984;2022-11-20T01:47:21;28.50;;;13.85;;
47860;SDS011;33620;52.340;5.984;2022-11-20T01:50:04;28.52;;;13.65;;
47860;SDS011;33620;52.340;5.984;2022-11-20T01:52:34;27.30;;;13.70;;
47860;SDS011;33620;52.340;5.984;2022-11-20T01:55:09;28.75;;;14.10;;
47860;SDS011;33620;52.340;5.984;2022-11-20T01:57:37;24.25;;;12.63;;
47860;SDS011;33620;52.340;5.984;2022-11-20T02:00:06;28.20;;;13.18;;
47860;SDS011;33620;52.340;5.984;2022-11-20T02:02:34;39.03;;;16.48;;
47860;SDS011;33620;52.340;5.984;2022-11-20T02:05:02;26.02;;;12.85;;
47860;SDS011;33620;52.340;5.984;2022-11-20T02:07:35;30.27;;;13.75;;
47860;SDS011;33620;52.340;5.984;2022-11-20T02:10:01;29.42;;;14.05;;
47860;SDS011;33620;52.340;5.984;2022-11-20T02:12:26;27.90;;;14.50;;
47860;SDS011;33620;52.340;5.984;2022-11-20T02:15:10;29.60;;;14.50;;
47860;SDS011;33620;52.340;5.984;2022-11-20T02:17:36;27.92;;;14.70;;
47860;SDS011;33620;52.340;5.984;2022-11-20T02:20:01;28.23;;;14.45;;
47860;SDS011;33620;52.340;5.984;2022-11-20T02:22:28;31.88;;;14.80;;
47860;SDS011;33620;52.340;5.984;2022-11-20T02:24:58;34.15;;;16.20;;
47860;SDS011;33620;52.340;5.984;2022-11-20T02:27:27;31.38;;;14.73;;
47860;SDS011;33620;52.340;5.984;2022-11-20T02:29:54;35.30;;;17.00;;
47860;SDS011;33620;52.340;5.984;2022-11-20T02:32:26;33.22;;;16.30;;
47860;SDS011;33620;52.340;5.984;2022-11-20T02:34:54;32.45;;;15.10;;
47860;SDS011;33620;52.340;5.984;2022-11-20T02:37:20;31.98;;;15.85;;
47860;SDS011;33620;52.340;5.984;2022-11-20T02:39:47;30.52;;;14.38;;
47860;SDS011;33620;52.340;5.984;2022-11-20T02:42:15;31.08;;;15.63;;
47860;SDS011;33620;52.340;5.984;2022-11-20T02:44:40;29.88;;;14.38;;
47860;SDS011;33620;52.340;5.984;2022-11-20T02:47:06;28.63;;;13.15;;
47860;SDS011;33620;52.340;5.984;2022-11-20T02:49:31;30.63;;;14.30;;
47860;SDS011;33620;52.340;5.984;2022-11-20T02:51:57;28.63;;;13.93;;
47860;SDS011;33620;52.340;5.984;2022-11-20T02:54:23;31.13;;;14.13;;
47860;SDS011;33620;52.340;5.984;2022-11-20T02:56:49;27.35;;;13.05;;
47860;SDS011;33620;52.340;5.984;2022-11-20T02:59:15;29.77;;;14.23;;
47860;SDS011;33620;52.340;5.984;2022-11-20T03:01:40;29.13;;;13.98;;
47860;SDS011;33620;52.340;5.984;2022-11-20T03:04:05;27.95;;;13.88;;
47860;SDS011;33620;52.340;5.984;2022-11-20T03:06:31;27.92;;;13.40;;
47860;SDS011;33620;52.340;5.984;2022-11-20T03:08:56;28.38;;;12.98;;
47860;SDS011;33620;52.340;5.984;2022-11-20T03:11:22;30.45;;;14.20;;
47860;SDS011;33620;52.340;5.984;2022-11-20T03:13:47;27.33;;;13.25;;
47860;SDS011;33620;52.340;5.984;2022-11-20T03:16:14;28.63;;;13.48;;
47860;SDS011;33620;52.340;5.984;2022-11-20T03:18:42;29.55;;;13.23;;
47860;SDS011;33620;52.340;5.984;2022-11-20T03:21:08;28.10;;;13.05;;
47860;SDS011;33620;52.340;5.984;2022-11-20T03:23:35;27.02;;;12.57;;
47860;SDS011;33620;52.340;5.984;2022-11-20T03:26:11;27.52;;;13.10;;
47860;SDS011;33620;52.340;5.984;2022-11-20T03:28:37;31.20;;;14.13;;
47860;SDS011;33620;52.340;5.984;2022-11-20T03:31:07;27.92;;;13.68;;
47860;SDS011;33620;52.340;5.984;2022-11-20T03:33:34;26.98;;;13.05;;
47860;SDS011;33620;52.340;5.984;2022-11-20T03:36:03;27.38;;;12.65;;
47860;SDS011;33620;52.340;5.984;2022-11-20T03:38:30;27.20;;;12.40;;
47860;SDS011;33620;52.340;5.984;2022-11-20T03:41:00;25.77;;;12.10;;
47860;SDS011;33620;52.340;5.984;2022-11-20T03:43:30;27.13;;;11.88;;
47860;SDS011;33620;52.340;5.984;2022-11-20T03:45:56;27.90;;;12.68;;
47860;SDS011;33620;52.340;5.984;2022-11-20T03:48:22;26.67;;;12.80;;
47860;SDS011;33620;52.340;5.984;2022-11-20T03:50:47;26.48;;;12.90;;
47860;SDS011;33620;52.340;5.984;2022-11-20T03:53:13;28.63;;;13.35;;
47860;SDS011;33620;52.340;5.984;2022-11-20T03:55:39;26.42;;;12.90;;
47860;SDS011;33620;52.340;5.984;2022-11-20T03:58:04;25.45;;;12.52;;
47860;SDS011;33620;52.340;5.984;2022-11-20T04:00:30;28.00;;;12.88;;
47860;SDS011;33620;52.340;5.984;2022-11-20T04:02:58;27.60;;;12.65;;
47860;SDS011;33620;52.340;5.984;2022-11-20T04:05:24;28.25;;;13.43;;
47860;SDS011;33620;52.340;5.984;2022-11-20T04:07:50;28.45;;;13.50;;
47860;SDS011;33620;52.340;5.984;2022-11-20T04:10:15;27.80;;;13.05;;
47860;SDS011;33620;52.340;5.984;2022-11-20T04:12:41;28.08;;;12.57;;
47860;SDS011;33620;52.340;5.984;2022-11-20T04:15:06;26.10;;;12.20;;
47860;SDS011;33620;52.340;5.984;2022-11-20T04:17:32;26.63;;;12.73;;
47860;SDS011;33620;52.340;5.984;2022-11-20T04:19:57;26.48;;;11.75;;
47860;SDS011;33620;52.340;5.984;2022-11-20T04:22:23;28.20;;;12.70;;
47860;SDS011;33620;52.340;5.984;2022-11-20T04:24:48;25.63;;;11.18;;
47860;SDS011;33620;52.340;5.984;2022-11-20T04:27:13;28.20;;;12.73;;
47860;SDS011;33620;52.340;5.984;2022-11-20T04:29:39;27.65;;;12.35;;
47860;SDS011;33620;52.340;5.984;2022-11-20T04:32:04;25.58;;;12.30;;
47860;SDS011;33620;52.340;5.984;2022-11-20T04:34:29;22.67;;;11.52;;
47860;SDS011;33620;52.340;5.984;2022-11-20T04:36:55;29.70;;;13.38;;
47860;SDS011;33620;52.340;5.984;2022-11-20T04:39:20;26.35;;;12.65;;
47860;SDS011;33620;52.340;5.984;2022-11-20T04:41:45;25.88;;;12.95;;
47860;SDS011;33620;52.340;5.984;2022-11-20T04:44:11;27.98;;;12.68;;
47860;SDS011;33620;52.340;5.984;2022-11-20T04:46:38;28.83;;;12.57;;
47860;SDS011;33620;52.340;5.984;2022-11-20T04:49:13;25.80;;;12.68;;
47860;SDS011;33620;52.340;5.984;2022-11-20T04:51:45;27.35;;;13.38;;
47860;SDS011;33620;52.340;5.984;2022-11-20T04:54:13;29.77;;;12.48;;
47860;SDS011;33620;52.340;5.984;2022-11-20T04:56:49;24.73;;;12.60;;
47860;SDS011;33620;52.340;5.984;2022-11-20T04:59:18;26.88;;;12.35;;
47860;SDS011;33620;52.340;5.984;2022-11-20T05:01:56;26.55;;;12.02;;
47860;SDS011;33620;52.340;5.984;2022-11-20T05:04:22;28.50;;;12.90;;
47860;SDS011;33620;52.340;5.984;2022-11-20T05:06:56;27.70;;;13.27;;
47860;SDS011;33620;52.340;5.984;2022-11-20T05:09:22;28.58;;;13.70;;
47860;SDS011;33620;52.340;5.984;2022-11-20T05:11:51;27.42;;;12.57;;
47860;SDS011;33620;52.340;5.984;2022-11-20T05:14:38;27.08;;;13.02;;
47860;SDS011;33620;52.340;5.984;2022-11-20T05:17:04;30.02;;;13.60;;
47860;SDS011;33620;52.340;5.984;2022-11-20T05:19:30;30.58;;;13.68;;
47860;SDS011;33620;52.340;5.984;2022-11-20T05:21:58;29.85;;;14.25;;
47860;SDS011;33620;52.340;5.984;2022-11-20T05:24:29;29.05;;;12.98;;
47860;SDS011;33620;52.340;5.984;2022-11-20T05:26:55;29.58;;;13.65;;
47860;SDS011;33620;52.340;5.984;2022-11-20T05:29:31;29.73;;;13.73;;
47860;SDS011;33620;52.340;5.984;2022-11-20T05:32:00;29.02;;;13.10;;
47860;SDS011;33620;52.340;5.984;2022-11-20T05:34:31;32.22;;;14.13;;
47860;SDS011;33620;52.340;5.984;2022-11-20T05:36:57;27.55;;;12.68;;
47860;SDS011;33620;52.340;5.984;2022-11-20T05:39:32;25.85;;;12.38;;
47860;SDS011;33620;52.340;5.984;2022-11-20T05:42:03;28.00;;;12.40;;
47860;SDS011;33620;52.340;5.984;2022-11-20T05:44:50;27.35;;;13.07;;
47860;SDS011;33620;52.340;5.984;2022-11-20T05:47:27;26.83;;;11.85;;
47860;SDS011;33620;52.340;5.984;2022-11-20T05:49:56;25.83;;;12.38;;
47860;SDS011;33620;52.340;5.984;2022-11-20T05:52:24;28.75;;;11.77;;
47860;SDS011;33620;52.340;5.984;2022-11-20T05:54:53;25.30;;;12.05;;
47860;SDS011;33620;52.340;5.984;2022-11-20T05:57:19;24.88;;;11.48;;
47860;SDS011;33620;52.340;5.984;2022-11-20T05:59:45;26.63;;;13.02;;
47860;SDS011;33620;52.340;5.984;2022-11-20T06:02:13;28.92;;;12.38;;
47860;SDS011;33620;52.340;5.984;2022-11-20T06:04:44;29.05;;;12.35;;
47860;SDS011;33620;52.340;5.984;2022-11-20T06:07:13;28.73;;;12.15;;
47860;SDS011;33620;52.340;5.984;2022-11-20T06:09:45;26.40;;;12.82;;
47860;SDS011;33620;52.340;5.984;2022-11-20T06:14:48;26.17;;;12.05;;
47860;SDS011;33620;52.340;5.984;2022-11-20T06:17:14;29.90;;;12.48;;
47860;SDS011;33620;52.340;5.984;2022-11-20T06:19:40;26.02;;;11.70;;
47860;SDS011;33620;52.340;5.984;2022-11-20T06:22:08;24.95;;;12.18;;
47860;SDS011;33620;52.340;5.984;2022-11-20T06:24:34;26.50;;;12.27;;
47860;SDS011;33620;52.340;5.984;2022-11-20T06:27:04;28.48;;;13.15;;
47860;SDS011;33620;52.340;5.984;2022-11-20T06:29:39;28.50;;;13.55;;
47860;SDS011;33620;52.340;5.984;2022-11-20T06:32:05;32.42;;;13.15;;
47860;SDS011;33620;52.340;5.984;2022-11-20T06:34:36;30.02;;;14.35;;
47860;SDS011;33620;52.340;5.984;2022-11-20T06:37:02;29.08;;;13.65;;
47860;SDS011;33620;52.340;5.984;2022-11-20T06:39:34;27.58;;;12.40;;
47860;SDS011;33620;52.340;5.984;2022-11-20T06:42:07;27.67;;;12.95;;
47860;SDS011;33620;52.340;5.984;2022-11-20T06:44:36;30.80;;;12.60;;
47860;SDS011;33620;52.340;5.984;2022-11-20T06:47:12;27.50;;;12.75;;
47860;SDS011;33620;52.340;5.984;2022-11-20T06:49:43;27.73;;;12.95;;
47860;SDS011;33620;52.340;5.984;2022-11-20T06:52:20;25.70;;;11.65;;
47860;SDS011;33620;52.340;5.984;2022-11-20T06:54:58;24.05;;;11.60;;
47860;SDS011;33620;52.340;5.984;2022-11-20T06:57:27;25.85;;;11.55;;
47860;SDS011;33620;52.340;5.984;2022-11-20T06:59:53;24.10;;;11.82;;
47860;SDS011;33620;52.340;5.984;2022-11-20T07:02:28;27.40;;;12.63;;
47860;SDS011;33620;52.340;5.984;2022-11-20T07:04:56;25.85;;;12.75;;
47860;SDS011;33620;52.340;5.984;2022-11-20T07:07:22;31.95;;;15.98;;
47860;SDS011;33620;52.340;5.984;2022-11-20T07:09:53;30.80;;;14.77;;
47860;SDS011;33620;52.340;5.984;2022-11-20T07:12:27;29.35;;;14.25;;
47860;SDS011;33620;52.340;5.984;2022-11-20T07:14:56;28.85;;;16.42;;
47860;SDS011;33620;52.340;5.984;2022-11-20T07:17:22;30.83;;;16.08;;
47860;SDS011;33620;52.340;5.984;2022-11-20T07:19:50;34.17;;;17.45;;
47860;SDS011;33620;52.340;5.984;2022-11-20T07:22:28;36.50;;;18.67;;
47860;SDS011;33620;52.340;5.984;2022-11-20T07:25:07;33.28;;;17.52;;
47860;SDS011;33620;52.340;5.984;2022-11-20T07:27:33;32.50;;;17.63;;
47860;SDS011;33620;52.340;5.984;2022-11-20T07:30:04;33.50;;;18.65;;
47860;SDS011;33620;52.340;5.984;2022-11-20T07:32:31;35.88;;;17.50;;
47860;SDS011;33620;52.340;5.984;2022-11-20T07:34:59;30.02;;;16.45;;
47860;SDS011;33620;52.340;5.984;2022-11-20T07:37:34;33.53;;;17.95;;
47860;SDS011;33620;52.340;5.984;2022-11-20T07:40:03;27.60;;;14.00;;
47860;SDS011;33620;52.340;5.984;2022-11-20T07:42:32;31.58;;;16.02;;
47860;SDS011;33620;52.340;5.984;2022-11-20T07:45:01;33.08;;;16.17;;
47860;SDS011;33620;52.340;5.984;2022-11-20T07:47:36;30.23;;;15.57;;
47860;SDS011;33620;52.340;5.984;2022-11-20T07:50:07;29.60;;;15.10;;
47860;SDS011;33620;52.340;5.984;2022-11-20T07:52:43;30.52;;;15.23;;
47860;SDS011;33620;52.340;5.984;2022-11-20T07:55:12;30.90;;;14.27;;
47860;SDS011;33620;52.340;5.984;2022-11-20T07:57:41;33.75;;;14.95;;
47860;SDS011;33620;52.340;5.984;2022-11-20T08:00:10;28.55;;;14.43;;
47860;SDS011;33620;52.340;5.984;2022-11-20T08:02:39;32.03;;;15.23;;
47860;SDS011;33620;52.340;5.984;2022-11-20T08:05:11;35.60;;;17.10;;
47860;SDS011;33620;52.340;5.984;2022-11-20T08:07:42;31.83;;;15.15;;
47860;SDS011;33620;52.340;5.984;2022-11-20T08:10:15;32.88;;;15.30;;
47860;SDS011;33620;52.340;5.984;2022-11-20T08:13:02;34.40;;;17.00;;
47860;SDS011;33620;52.340;5.984;2022-11-20T08:15:50;32.08;;;16.10;;
47860;SDS011;33620;52.340;5.984;2022-11-20T08:18:16;33.08;;;17.02;;
47860;SDS011;33620;52.340;5.984;2022-11-20T08:20:48;37.40;;;16.98;;
47860;SDS011;33620;52.340;5.984;2022-11-20T08:23:16;33.03;;;16.23;;
47860;SDS011;33620;52.340;5.984;2022-11-20T08:25:48;37.13;;;18.90;;
47860;SDS011;33620;52.340;5.984;2022-11-20T08:28:15;38.10;;;19.70;;
47860;SDS011;33620;52.340;5.984;2022-11-20T08:30:49;37.42;;;19.73;;
47860;SDS011;33620;52.340;5.984;2022-11-20T08:33:20;34.70;;;17.02;;
47860;SDS011;33620;52.340;5.984;2022-11-20T08:36:01;33.78;;;16.52;;
47860;SDS011;33620;52.340;5.984;2022-11-20T08:38:38;38.40;;;19.52;;
47860;SDS011;33620;52.340;5.984;2022-11-20T08:41:15;38.45;;;18.92;;
47860;SDS011;33620;52.340;5.984;2022-11-20T08:43:56;34.33;;;18.35;;
47860;SDS011;33620;52.340;5.984;2022-11-20T08:46:53;33.90;;;17.60;;
47860;SDS011;33620;52.340;5.984;2022-11-20T08:49:31;32.95;;;17.25;;
47860;SDS011;33620;52.340;5.984;2022-11-20T08:52:03;36.70;;;17.58;;
47860;SDS011;33620;52.340;5.984;2022-11-20T08:54:43;37.97;;;19.85;;
47860;SDS011;33620;52.340;5.984;2022-11-20T08:57:13;37.45;;;19.92;;
47860;SDS011;33620;52.340;5.984;2022-11-20T08:59:42;39.33;;;21.10;;
47860;SDS011;33620;52.340;5.984;2022-11-20T09:02:10;35.05;;;19.83;;
47860;SDS011;33620;52.340;5.984;2022-11-20T09:04:38;40.17;;;20.55;;
47860;SDS011;33620;52.340;5.984;2022-11-20T09:07:04;42.67;;;20.90;;
47860;SDS011;33620;52.340;5.984;2022-11-20T09:09:30;44.60;;;21.67;;
47860;SDS011;33620;52.340;5.984;2022-11-20T09:12:01;42.42;;;21.45;;
47860;SDS011;33620;52.340;5.984;2022-11-20T09:14:30;40.42;;;20.33;;
47860;SDS011;33620;52.340;5.984;2022-11-20T09:16:59;42.88;;;21.83;;
47860;SDS011;33620;52.340;5.984;2022-11-20T09:19:25;42.85;;;21.40;;
47860;SDS011;33620;52.340;5.984;2022-11-20T09:21:54;37.53;;;19.98;;
47860;SDS011;33620;52.340;5.984;2022-11-20T09:24:27;41.58;;;20.50;;
47860;SDS011;33620;52.340;5.984;2022-11-20T09:26:56;39.92;;;20.65;;
47860;SDS011;33620;52.340;5.984;2022-11-20T09:29:22;38.22;;;20.52;;
47860;SDS011;33620;52.340;5.984;2022-11-20T09:31:51;40.00;;;21.20;;
47860;SDS011;33620;52.340;5.984;2022-11-20T09:34:16;45.17;;;22.90;;
47860;SDS011;33620;52.340;5.984;2022-11-20T09:36:42;43.42;;;23.83;;
47860;SDS011;33620;52.340;5.984;2022-11-20T09:39:08;44.67;;;23.17;;
47860;SDS011;33620;52.340;5.984;2022-11-20T09:41:45;44.15;;;23.75;;
47860;SDS011;33620;52.340;5.984;2022-11-20T09:47:22;43.63;;;23.95;;
47860;SDS011;33620;52.340;5.984;2022-11-20T09:55:29;38.50;;;20.70;;
47860;SDS011;33620;52.340;5.984;2022-11-20T09:58:05;38.88;;;20.70;;
47860;SDS011;33620;52.340;5.984;2022-11-20T10:00:36;35.20;;;19.55;;
47860;SDS011;33620;52.340;5.984;2022-11-20T10:03:05;36.30;;;19.30;;
47860;SDS011;33620;52.340;5.984;2022-11-20T10:14:01;43.83;;;23.90;;
47860;SDS011;33620;52.340;5.984;2022-11-20T10:16:43;41.20;;;23.33;;
47860;SDS011;33620;52.340;5.984;2022-11-20T10:29:32;40.20;;;20.30;;
47860;SDS011;33620;52.340;5.984;2022-11-20T10:32:16;39.83;;;21.13;;
47860;SDS011;33620;52.340;5.984;2022-11-20T10:35:05;47.90;;;25.65;;
47860;SDS011;33620;52.340;5.984;2022-11-20T10:38:01;41.15;;;21.65;;
47860;SDS011;33620;52.340;5.984;2022-11-20T10:40:38;44.42;;;23.17;;
47860;SDS011;33620;52.340;5.984;2022-11-20T10:43:40;39.63;;;21.60;;
47860;SDS011;33620;52.340;5.984;2022-11-20T10:46:08;44.08;;;22.95;;
47860;SDS011;33620;52.340;5.984;2022-11-20T10:48:39;43.45;;;23.83;;
47860;SDS011;33620;52.340;5.984;2022-11-20T10:51:11;45.53;;;24.60;;
47860;SDS011;33620;52.340;5.984;2022-11-20T10:53:43;42.78;;;23.95;;
47860;SDS011;33620;52.340;5.984;2022-11-20T11:01:44;48.42;;;26.17;;
47860;SDS011;33620;52.340;5.984;2022-11-20T11:04:44;44.47;;;24.70;;
47860;SDS011;33620;52.340;5.984;2022-11-20T11:07:12;43.17;;;23.65;;
47860;SDS011;33620;52.340;5.984;2022-11-20T11:09:43;49.17;;;25.48;;
47860;SDS011;33620;52.340;5.984;2022-11-20T11:12:13;45.15;;;22.63;;
47860;SDS011;33620;52.340;5.984;2022-11-20T11:14:57;44.85;;;23.73;;
47860;SDS011;33620;52.340;5.984;2022-11-20T11:22:31;44.58;;;24.38;;
47860;SDS011;33620;52.340;5.984;2022-11-20T11:24:59;38.67;;;23.08;;
47860;SDS011;33620;52.340;5.984;2022-11-20T11:27:24;46.33;;;25.40;;
47860;SDS011;33620;52.340;5.984;2022-11-20T11:29:50;43.13;;;22.77;;
47860;SDS011;33620;52.340;5.984;2022-11-20T11:32:27;47.80;;;25.48;;
47860;SDS011;33620;52.340;5.984;2022-11-20T11:34:59;44.72;;;22.95;;
47860;SDS011;33620;52.340;5.984;2022-11-20T11:37:33;51.20;;;26.48;;
47860;SDS011;33620;52.340;5.984;2022-11-20T11:40:00;50.72;;;26.48;;
47860;SDS011;33620;52.340;5.984;2022-11-20T11:42:27;45.22;;;24.38;;
47860;SDS011;33620;52.340;5.984;2022-11-20T11:44:53;45.38;;;24.92;;
47860;SDS011;33620;52.340;5.984;2022-11-20T11:55:28;47.92;;;24.35;;
47860;SDS011;33620;52.340;5.984;2022-11-20T12:01:11;38.40;;;21.30;;
47860;SDS011;33620;52.340;5.984;2022-11-20T12:03:43;45.45;;;24.23;;
47860;SDS011;33620;52.340;5.984;2022-11-20T12:06:20;37.60;;;21.27;;
47860;SDS011;33620;52.340;5.984;2022-11-20T12:08:53;44.22;;;23.90;;
47860;SDS011;33620;52.340;5.984;2022-11-20T12:11:27;40.13;;;22.80;;
47860;SDS011;33620;52.340;5.984;2022-11-20T12:14:14;39.10;;;21.35;;
47860;SDS011;33620;52.340;5.984;2022-11-20T12:16:56;42.95;;;23.23;;
47860;SDS011;33620;52.340;5.984;2022-11-20T12:19:22;46.97;;;25.17;;
47860;SDS011;33620;52.340;5.984;2022-11-20T12:27:04;43.25;;;23.90;;
47860;SDS011;33620;52.340;5.984;2022-11-20T12:30:07;43.10;;;23.70;;
47860;SDS011;33620;52.340;5.984;2022-11-20T12:40:44;42.45;;;22.80;;
47860;SDS011;33620;52.340;5.984;2022-11-20T12:43:27;44.10;;;23.85;;
47860;SDS011;33620;52.340;5.984;2022-11-20T12:48:48;38.08;;;20.73;;
47860;SDS011;33620;52.340;5.984;2022-11-20T12:51:50;39.88;;;21.42;;
47860;SDS011;33620;52.340;5.984;2022-11-20T12:54:29;37.78;;;21.00;;
47860;SDS011;33620;52.340;5.984;2022-11-20T12:57:09;34.90;;;19.20;;
47860;SDS011;33620;52.340;5.984;2022-11-20T13:00:07;36.15;;;20.30;;
47860;SDS011;33620;52.340;5.984;2022-11-20T13:08:36;35.20;;;18.92;;
47860;SDS011;33620;52.340;5.984;2022-11-20T13:11:09;36.47;;;18.75;;
47860;SDS011;33620;52.340;5.984;2022-11-20T13:18:48;32.42;;;17.50;;
47860;SDS011;33620;52.340;5.984;2022-11-20T13:21:15;32.85;;;18.63;;
47860;SDS011;33620;52.340;5.984;2022-11-20T13:23:42;38.58;;;20.48;;
47860;SDS011;33620;52.340;5.984;2022-11-20T13:26:15;35.22;;;19.70;;
47860;SDS011;33620;52.340;5.984;2022-11-20T13:28:45;35.13;;;20.23;;
47860;SDS011;33620;52.340;5.984;2022-11-20T13:34:12;35.63;;;20.55;;
47860;SDS011;33620;52.340;5.984;2022-11-20T13:36:49;33.92;;;19.73;;
47860;SDS011;33620;52.340;5.984;2022-11-20T13:39:23;34.13;;;19.48;;
47860;SDS011;33620;52.340;5.984;2022-11-20T13:41:54;34.92;;;20.42;;
47860;SDS011;33620;52.340;5.984;2022-11-20T13:44:25;34.97;;;20.25;;
47860;SDS011;33620;52.340;5.984;2022-11-20T13:46:54;34.72;;;19.20;;
47860;SDS011;33620;52.340;5.984;2022-11-20T13:49:23;34.10;;;19.35;;
47860;SDS011;33620;52.340;5.984;2022-11-20T13:58:05;34.85;;;20.25;;
47860;SDS011;33620;52.340;5.984;2022-11-20T14:00:55;30.73;;;16.77;;
47860;SDS011;33620;52.340;5.984;2022-11-20T14:03:22;31.83;;;18.48;;
47860;SDS011;33620;52.340;5.984;2022-11-20T14:05:51;32.28;;;17.25;;
47860;SDS011;33620;52.340;5.984;2022-11-20T14:08:23;30.60;;;18.23;;
47860;SDS011;33620;52.340;5.984;2022-11-20T14:11:02;29.50;;;17.13;;
47860;SDS011;33620;52.340;5.984;2022-11-20T14:13:28;35.92;;;21.05;;
47860;SDS011;33620;52.340;5.984;2022-11-20T14:15:56;33.95;;;18.73;;
47860;SDS011;33620;52.340;5.984;2022-11-20T14:18:22;30.92;;;18.02;;
47860;SDS011;33620;52.340;5.984;2022-11-20T14:20:47;30.15;;;17.33;;
47860;SDS011;33620;52.340;5.984;2022-11-20T14:23:22;32.92;;;18.48;;
47860;SDS011;33620;52.340;5.984;2022-11-20T14:25:49;32.72;;;16.88;;
47860;SDS011;33620;52.340;5.984;2022-11-20T14:28:20;30.77;;;17.40;;
47860;SDS011;33620;52.340;5.984;2022-11-20T14:30:50;32.38;;;17.63;;
47860;SDS011;33620;52.340;5.984;2022-11-20T14:33:15;30.90;;;16.98;;
47860;SDS011;33620;52.340;5.984;2022-11-20T14:35:48;36.33;;;19.80;;
47860;SDS011;33620;52.340;5.984;2022-11-20T14:38:20;34.15;;;17.55;;
47860;SDS011;33620;52.340;5.984;2022-11-20T14:40:48;30.92;;;17.08;;
47860;SDS011;33620;52.340;5.984;2022-11-20T14:46:02;32.35;;;17.95;;
47860;SDS011;33620;52.340;5.984;2022-11-20T14:48:46;31.50;;;17.67;;
47860;SDS011;33620;52.340;5.984;2022-11-20T14:51:28;32.92;;;17.73;;
47860;SDS011;33620;52.340;5.984;2022-11-20T14:53:56;35.10;;;19.92;;
47860;SDS011;33620;52.340;5.984;2022-11-20T14:56:22;40.30;;;22.95;;
47860;SDS011;33620;52.340;5.984;2022-11-20T14:58:55;35.38;;;19.55;;
47860;SDS011;33620;52.340;5.984;2022-11-20T15:04:00;32.72;;;17.98;;
47860;SDS011;33620;52.340;5.984;2022-11-20T15:06:34;41.63;;;23.63;;
47860;SDS011;33620;52.340;5.984;2022-11-20T15:09:01;45.03;;;24.85;;
47860;SDS011;33620;52.340;5.984;2022-11-20T15:11:31;43.08;;;23.75;;
47860;SDS011;33620;52.340;5.984;2022-11-20T15:14:03;47.47;;;25.30;;
47860;SDS011;33620;52.340;5.984;2022-11-20T15:16:30;43.55;;;24.38;;
47860;SDS011;33620;52.340;5.984;2022-11-20T15:18:56;45.53;;;25.05;;
47860;SDS011;33620;52.340;5.984;2022-11-20T15:21:22;46.50;;;27.35;;
47860;SDS011;33620;52.340;5.984;2022-11-20T15:23:47;53.08;;;28.88;;
47860;SDS011;33620;52.340;5.984;2022-11-20T15:26:14;52.88;;;28.38;;
47860;SDS011;33620;52.340;5.984;2022-11-20T15:28:46;53.50;;;29.42;;
47860;SDS011;33620;52.340;5.984;2022-11-20T15:31:15;53.10;;;27.80;;
47860;SDS011;33620;52.340;5.984;2022-11-20T15:33:43;55.25;;;30.40;;
47860;SDS011;33620;52.340;5.984;2022-11-20T15:36:09;50.42;;;28.65;;
47860;SDS011;33620;52.340;5.984;2022-11-20T15:38:34;54.53;;;30.05;;
47860;SDS011;33620;52.340;5.984;2022-11-20T15:41:00;58.83;;;32.00;;
47860;SDS011;33620;52.340;5.984;2022-11-20T15:43:26;53.92;;;30.55;;
47860;SDS011;33620;52.340;5.984;2022-11-20T15:45:52;56.42;;;31.80;;
47860;SDS011;33620;52.340;5.984;2022-11-20T15:48:21;57.58;;;31.40;;
47860;SDS011;33620;52.340;5.984;2022-11-20T15:50:52;53.55;;;30.40;;
47860;SDS011;33620;52.340;5.984;2022-11-20T15:53:17;58.17;;;32.67;;
47860;SDS011;33620;52.340;5.984;2022-11-20T15:55:43;64.40;;;33.45;;
47860;SDS011;33620;52.340;5.984;2022-11-20T15:58:08;64.20;;;33.35;;
47860;SDS011;33620;52.340;5.984;2022-11-20T16:00:34;58.85;;;32.28;;
47860;SDS011;33620;52.340;5.984;2022-11-20T16:02:59;59.42;;;31.40;;
47860;SDS011;33620;52.340;5.984;2022-11-20T16:05:27;57.70;;;31.25;;
47860;SDS011;33620;52.340;5.984;2022-11-20T16:07:53;56.25;;;31.00;;
47860;SDS011;33620;52.340;5.984;2022-11-20T16:10:18;62.95;;;32.13;;
47860;SDS011;33620;52.340;5.984;2022-11-20T16:12:44;66.10;;;34.22;;